sensor_id;sensor_type;location;lat;lon;timestamp;temperature;humidity
65824;SHT31;52585;47.566;19.056;2022-07-22T00:01:26;26.33;45.09
65824;SHT31;52585;47.566;19.056;2022-07-22T00:03:58;26.30;45.01
65824;SHT31;52585;47.566;19.056;2022-07-22T00:06:25;26.27;44.61
65824;SHT31;52585;47.566;19.056;2022-07-22T00:08:51;26.24;44.80
65824;SHT31;52585;47.566;19.056;2022-07-22T00:11:17;26.23;44.98
65824;SHT31;52585;47.566;19.056;2022-07-22T00:13:42;26.20;44.70
65824;SHT31;52585;47.566;19.056;2022-07-22T00:16:10;26.17;44.79
65824;SHT31;52585;47.566;19.056;2022-07-22T00:18:35;26.15;45.02
65824;SHT31;52585;47.566;19.056;2022-07-22T00:21:01;26.14;45.19
65824;SHT31;52585;47.566;19.056;2022-07-22T00:23:27;26.11;45.02
65824;SHT31;52585;47.566;19.056;2022-07-22T00:25:52;26.09;44.98
65824;SHT31;52585;47.566;19.056;2022-07-22T00:28:19;26.05;44.98
65824;SHT31;52585;47.566;19.056;2022-07-22T00:30:45;26.03;45.26
65824;SHT31;52585;47.566;19.056;2022-07-22T00:33:11;26.01;45.35
65824;SHT31;52585;47.566;19.056;2022-07-22T00:35:36;25.98;45.33
65824;SHT31;52585;47.566;19.056;2022-07-22T00:38:02;25.96;45.48
65824;SHT31;52585;47.566;19.056;2022-07-22T00:40:28;25.94;45.52
65824;SHT31;52585;47.566;19.056;2022-07-22T00:42:53;25.92;45.63
65824;SHT31;52585;47.566;19.056;2022-07-22T00:45:19;25.89;45.74
65824;SHT31;52585;47.566;19.056;2022-07-22T00:47:45;25.85;45.61
65824;SHT31;52585;47.566;19.056;2022-07-22T00:50:11;25.81;45.43
65824;SHT31;52585;47.566;19.056;2022-07-22T00:52:36;25.79;45.44
65824;SHT31;52585;47.566;19.056;2022-07-22T00:55:03;25.76;45.49
65824;SHT31;52585;47.566;19.056;2022-07-22T00:57:30;25.74;45.49
65824;SHT31;52585;47.566;19.056;2022-07-22T00:59:56;25.72;45.41
65824;SHT31;52585;47.566;19.056;2022-07-22T01:02:23;25.69;45.49
65824;SHT31;52585;47.566;19.056;2022-07-22T01:04:49;25.67;45.38
65824;SHT31;52585;47.566;19.056;2022-07-22T01:07:15;25.64;45.38
65824;SHT31;52585;47.566;19.056;2022-07-22T01:09:44;25.61;45.44
65824;SHT31;52585;47.566;19.056;2022-07-22T01:12:10;25.59;45.38
65824;SHT31;52585;47.566;19.056;2022-07-22T01:14:37;25.55;45.34
65824;SHT31;52585;47.566;19.056;2022-07-22T01:17:03;25.50;45.17
65824;SHT31;52585;47.566;19.056;2022-07-22T01:19:30;25.47;45.24
65824;SHT31;52585;47.566;19.056;2022-07-22T01:21:56;25.44;45.18
65824;SHT31;52585;47.566;19.056;2022-07-22T01:24:21;25.44;45.08
65824;SHT31;52585;47.566;19.056;2022-07-22T01:26:47;25.44;45.22
65824;SHT31;52585;47.566;19.056;2022-07-22T01:29:13;25.44;45.20
65824;SHT31;52585;47.566;19.056;2022-07-22T01:31:39;25.44;45.02
65824;SHT31;52585;47.566;19.056;2022-07-22T01:34:04;25.41;45.07
65824;SHT31;52585;47.566;19.056;2022-07-22T01:36:30;25.41;44.92
65824;SHT31;52585;47.566;19.056;2022-07-22T01:38:56;25.39;44.99
65824;SHT31;52585;47.566;19.056;2022-07-22T01:41:21;25.39;44.77
65824;SHT31;52585;47.566;19.056;2022-07-22T01:43:47;25.37;44.57
65824;SHT31;52585;47.566;19.056;2022-07-22T01:46:13;25.35;44.53
65824;SHT31;52585;47.566;19.056;2022-07-22T01:48:39;25.34;44.51
65824;SHT31;52585;47.566;19.056;2022-07-22T01:51:05;25.31;44.62
65824;SHT31;52585;47.566;19.056;2022-07-22T01:53:31;25.30;44.53
65824;SHT31;52585;47.566;19.056;2022-07-22T01:55:57;25.27;44.68
65824;SHT31;52585;47.566;19.056;2022-07-22T01:58:23;25.22;44.77
65824;SHT31;52585;47.566;19.056;2022-07-22T02:00:49;25.19;44.86
65824;SHT31;52585;47.566;19.056;2022-07-22T02:03:14;25.16;44.82
65824;SHT31;52585;47.566;19.056;2022-07-22T02:05:40;25.15;44.88
65824;SHT31;52585;47.566;19.056;2022-07-22T02:08:07;25.14;45.11
65824;SHT31;52585;47.566;19.056;2022-07-22T02:10:35;25.12;45.06
65824;SHT31;52585;47.566;19.056;2022-07-22T02:13:03;25.11;44.91
65824;SHT31;52585;47.566;19.056;2022-07-22T02:15:30;25.09;44.92
65824;SHT31;52585;47.566;19.056;2022-07-22T02:17:55;25.08;45.06
65824;SHT31;52585;47.566;19.056;2022-07-22T02:20:22;25.08;45.23
65824;SHT31;52585;47.566;19.056;2022-07-22T02:22:48;25.07;45.27
65824;SHT31;52585;47.566;19.056;2022-07-22T02:25:16;25.05;45.23
65824;SHT31;52585;47.566;19.056;2022-07-22T02:27:44;25.04;45.08
65824;SHT31;52585;47.566;19.056;2022-07-22T02:30:12;25.03;45.13
65824;SHT31;52585;47.566;19.056;2022-07-22T02:32:38;24.99;45.38
65824;SHT31;52585;47.566;19.056;2022-07-22T02:35:04;24.97;45.27
65824;SHT31;52585;47.566;19.056;2022-07-22T02:37:30;24.94;45.22
65824;SHT31;52585;47.566;19.056;2022-07-22T02:39:56;24.92;45.29
65824;SHT31;52585;47.566;19.056;2022-07-22T02:42:22;24.88;45.56
65824;SHT31;52585;47.566;19.056;2022-07-22T02:44:48;24.84;45.75
65824;SHT31;52585;47.566;19.056;2022-07-22T02:47:13;24.81;45.74
65824;SHT31;52585;47.566;19.056;2022-07-22T02:49:39;24.77;45.70
65824;SHT31;52585;47.566;19.056;2022-07-22T02:52:05;24.74;45.72
65824;SHT31;52585;47.566;19.056;2022-07-22T02:57:32;24.65;46.03
65824;SHT31;52585;47.566;19.056;2022-07-22T02:59:57;24.62;46.18
65824;SHT31;52585;47.566;19.056;2022-07-22T03:02:23;24.59;46.36
65824;SHT31;52585;47.566;19.056;2022-07-22T03:04:48;24.57;46.43
65824;SHT31;52585;47.566;19.056;2022-07-22T03:07:14;24.55;46.57
65824;SHT31;52585;47.566;19.056;2022-07-22T03:09:39;24.52;46.80
65824;SHT31;52585;47.566;19.056;2022-07-22T03:12:05;24.50;46.98
65824;SHT31;52585;47.566;19.056;2022-07-22T03:14:31;24.47;47.00
65824;SHT31;52585;47.566;19.056;2022-07-22T03:16:56;24.43;47.05
65824;SHT31;52585;47.566;19.056;2022-07-22T03:19:22;24.40;47.16
65824;SHT31;52585;47.566;19.056;2022-07-22T03:21:47;24.39;47.24
65824;SHT31;52585;47.566;19.056;2022-07-22T03:24:13;24.38;47.36
65824;SHT31;52585;47.566;19.056;2022-07-22T03:26:38;24.34;47.26
65824;SHT31;52585;47.566;19.056;2022-07-22T03:29:04;24.33;47.26
65824;SHT31;52585;47.566;19.056;2022-07-22T03:31:29;24.30;47.29
65824;SHT31;52585;47.566;19.056;2022-07-22T03:33:55;24.28;47.14
65824;SHT31;52585;47.566;19.056;2022-07-22T03:36:21;24.26;47.10
65824;SHT31;52585;47.566;19.056;2022-07-22T03:38:46;24.24;47.11
65824;SHT31;52585;47.566;19.056;2022-07-22T03:41:12;24.22;47.07
65824;SHT31;52585;47.566;19.056;2022-07-22T03:43:37;24.21;47.13
65824;SHT31;52585;47.566;19.056;2022-07-22T03:46:03;24.18;47.02
65824;SHT31;52585;47.566;19.056;2022-07-22T03:48:29;24.18;47.04
65824;SHT31;52585;47.566;19.056;2022-07-22T03:50:54;24.17;47.21
65824;SHT31;52585;47.566;19.056;2022-07-22T03:53:20;24.16;47.24
65824;SHT31;52585;47.566;19.056;2022-07-22T03:55:45;24.16;47.33
65824;SHT31;52585;47.566;19.056;2022-07-22T03:58:11;24.15;47.45
65824;SHT31;52585;47.566;19.056;2022-07-22T04:00:37;24.14;47.58
65824;SHT31;52585;47.566;19.056;2022-07-22T04:03:03;24.13;47.59
65824;SHT31;52585;47.566;19.056;2022-07-22T04:05:28;24.11;47.26
65824;SHT31;52585;47.566;19.056;2022-07-22T04:07:54;24.12;47.25
65824;SHT31;52585;47.566;19.056;2022-07-22T04:10:19;24.11;47.33
65824;SHT31;52585;47.566;19.056;2022-07-22T04:12:45;24.11;47.37
65824;SHT31;52585;47.566;19.056;2022-07-22T04:15:11;24.11;47.23
65824;SHT31;52585;47.566;19.056;2022-07-22T04:17:37;24.11;47.14
65824;SHT31;52585;47.566;19.056;2022-07-22T04:20:02;24.11;47.10
65824;SHT31;52585;47.566;19.056;2022-07-22T04:22:29;24.13;47.17
65824;SHT31;52585;47.566;19.056;2022-07-22T04:24:55;24.13;47.34
65824;SHT31;52585;47.566;19.056;2022-07-22T04:27:21;24.14;47.46
65824;SHT31;52585;47.566;19.056;2022-07-22T04:29:48;24.14;47.58
65824;SHT31;52585;47.566;19.056;2022-07-22T04:32:14;24.16;47.79
65824;SHT31;52585;47.566;19.056;2022-07-22T04:34:40;24.18;47.91
65824;SHT31;52585;47.566;19.056;2022-07-22T04:37:06;24.18;47.93
65824;SHT31;52585;47.566;19.056;2022-07-22T04:39:33;24.20;47.88
65824;SHT31;52585;47.566;19.056;2022-07-22T04:41:59;24.15;48.03
65824;SHT31;52585;47.566;19.056;2022-07-22T04:44:25;24.13;48.24
65824;SHT31;52585;47.566;19.056;2022-07-22T04:46:50;24.10;48.22
65824;SHT31;52585;47.566;19.056;2022-07-22T04:49:16;24.07;48.46
65824;SHT31;52585;47.566;19.056;2022-07-22T04:51:41;24.03;48.73
65824;SHT31;52585;47.566;19.056;2022-07-22T04:54:13;24.01;49.04
65824;SHT31;52585;47.566;19.056;2022-07-22T04:56:39;24.00;49.40
65824;SHT31;52585;47.566;19.056;2022-07-22T04:59:05;24.01;49.48
65824;SHT31;52585;47.566;19.056;2022-07-22T05:01:30;24.00;49.83
65824;SHT31;52585;47.566;19.056;2022-07-22T05:03:56;24.02;50.26
65824;SHT31;52585;47.566;19.056;2022-07-22T05:06:22;24.05;50.40
65824;SHT31;52585;47.566;19.056;2022-07-22T05:08:47;24.06;50.66
65824;SHT31;52585;47.566;19.056;2022-07-22T05:11:13;24.09;51.04
65824;SHT31;52585;47.566;19.056;2022-07-22T05:13:38;24.13;51.43
65824;SHT31;52585;47.566;19.056;2022-07-22T05:16:04;24.17;51.54
65824;SHT31;52585;47.566;19.056;2022-07-22T05:18:31;24.22;51.42
65824;SHT31;52585;47.566;19.056;2022-07-22T05:20:57;24.28;51.39
65824;SHT31;52585;47.566;19.056;2022-07-22T05:23:23;24.33;51.30
65824;SHT31;52585;47.566;19.056;2022-07-22T05:25:49;24.39;51.57
65824;SHT31;52585;47.566;19.056;2022-07-22T05:28:15;24.45;51.31
65824;SHT31;52585;47.566;19.056;2022-07-22T05:30:40;24.51;50.81
65824;SHT31;52585;47.566;19.056;2022-07-22T05:33:06;24.59;50.15
65824;SHT31;52585;47.566;19.056;2022-07-22T05:35:31;24.66;50.66
65824;SHT31;52585;47.566;19.056;2022-07-22T05:37:57;24.72;50.80
65824;SHT31;52585;47.566;19.056;2022-07-22T05:40:23;24.78;50.35
65824;SHT31;52585;47.566;19.056;2022-07-22T05:42:48;24.83;50.25
65824;SHT31;52585;47.566;19.056;2022-07-22T05:45:14;24.89;49.28
65824;SHT31;52585;47.566;19.056;2022-07-22T05:47:39;24.93;48.87
65824;SHT31;52585;47.566;19.056;2022-07-22T05:50:05;25.01;47.72
65824;SHT31;52585;47.566;19.056;2022-07-22T05:52:35;25.07;47.16
65824;SHT31;52585;47.566;19.056;2022-07-22T05:55:02;25.13;47.28
65824;SHT31;52585;47.566;19.056;2022-07-22T05:57:28;25.18;47.34
65824;SHT31;52585;47.566;19.056;2022-07-22T05:59:54;25.23;47.40
65824;SHT31;52585;47.566;19.056;2022-07-22T06:02:19;25.28;46.74
65824;SHT31;52585;47.566;19.056;2022-07-22T06:04:46;25.33;46.18
65824;SHT31;52585;47.566;19.056;2022-07-22T06:07:12;25.38;46.13
65824;SHT31;52585;47.566;19.056;2022-07-22T06:09:37;25.43;46.22
65824;SHT31;52585;47.566;19.056;2022-07-22T06:12:03;25.48;46.42
65824;SHT31;52585;47.566;19.056;2022-07-22T06:14:29;25.56;46.51
65824;SHT31;52585;47.566;19.056;2022-07-22T06:16:55;25.60;45.71
65824;SHT31;52585;47.566;19.056;2022-07-22T06:19:20;25.66;45.32
65824;SHT31;52585;47.566;19.056;2022-07-22T06:21:46;25.71;44.82
65824;SHT31;52585;47.566;19.056;2022-07-22T06:24:11;25.77;44.20
65824;SHT31;52585;47.566;19.056;2022-07-22T06:26:37;25.81;44.13
65824;SHT31;52585;47.566;19.056;2022-07-22T06:29:03;25.87;43.81
65824;SHT31;52585;47.566;19.056;2022-07-22T06:31:28;25.91;43.77
65824;SHT31;52585;47.566;19.056;2022-07-22T06:33:54;25.96;43.95
65824;SHT31;52585;47.566;19.056;2022-07-22T06:36:19;26.02;43.37
65824;SHT31;52585;47.566;19.056;2022-07-22T06:38:45;26.06;42.63
65824;SHT31;52585;47.566;19.056;2022-07-22T06:41:11;26.14;42.13
65824;SHT31;52585;47.566;19.056;2022-07-22T06:43:38;26.19;42.57
65824;SHT31;52585;47.566;19.056;2022-07-22T06:46:05;26.23;42.56
65824;SHT31;52585;47.566;19.056;2022-07-22T06:48:30;26.27;42.88
65824;SHT31;52585;47.566;19.056;2022-07-22T06:50:56;26.31;43.06
65824;SHT31;52585;47.566;19.056;2022-07-22T06:53:22;26.36;42.19
65824;SHT31;52585;47.566;19.056;2022-07-22T06:55:48;26.42;41.45
65824;SHT31;52585;47.566;19.056;2022-07-22T06:58:13;26.48;41.07
65824;SHT31;52585;47.566;19.056;2022-07-22T07:00:39;26.53;41.36
65824;SHT31;52585;47.566;19.056;2022-07-22T07:03:05;26.58;41.77
65824;SHT31;52585;47.566;19.056;2022-07-22T07:05:30;26.63;41.37
65824;SHT31;52585;47.566;19.056;2022-07-22T07:07:56;26.69;40.85
65824;SHT31;52585;47.566;19.056;2022-07-22T07:10:22;26.74;40.39
65824;SHT31;52585;47.566;19.056;2022-07-22T07:12:48;26.78;40.21
65824;SHT31;52585;47.566;19.056;2022-07-22T07:15:13;26.82;40.10
65824;SHT31;52585;47.566;19.056;2022-07-22T07:17:39;26.86;40.32
65824;SHT31;52585;47.566;19.056;2022-07-22T07:20:05;26.90;40.47
65824;SHT31;52585;47.566;19.056;2022-07-22T07:22:32;26.95;40.08
65824;SHT31;52585;47.566;19.056;2022-07-22T07:25:02;26.99;39.58
65824;SHT31;52585;47.566;19.056;2022-07-22T07:27:29;27.03;39.36
65824;SHT31;52585;47.566;19.056;2022-07-22T07:29:55;27.07;39.25
65824;SHT31;52585;47.566;19.056;2022-07-22T07:32:21;27.12;39.01
65824;SHT31;52585;47.566;19.056;2022-07-22T07:34:47;27.16;38.89
65824;SHT31;52585;47.566;19.056;2022-07-22T07:37:12;27.21;38.88
65824;SHT31;52585;47.566;19.056;2022-07-22T07:39:38;27.27;38.65
65824;SHT31;52585;47.566;19.056;2022-07-22T07:42:04;27.32;38.17
65824;SHT31;52585;47.566;19.056;2022-07-22T07:44:30;27.37;38.31
65824;SHT31;52585;47.566;19.056;2022-07-22T07:46:55;27.42;38.20
65824;SHT31;52585;47.566;19.056;2022-07-22T07:49:21;27.49;38.05
65824;SHT31;52585;47.566;19.056;2022-07-22T07:51:46;27.57;38.21
65824;SHT31;52585;47.566;19.056;2022-07-22T07:54:12;27.62;37.91
65824;SHT31;52585;47.566;19.056;2022-07-22T07:56:37;27.70;37.56
65824;SHT31;52585;47.566;19.056;2022-07-22T07:59:03;27.78;37.37
65824;SHT31;52585;47.566;19.056;2022-07-22T08:01:29;27.86;36.83
65824;SHT31;52585;47.566;19.056;2022-07-22T08:03:55;27.92;36.55
65824;SHT31;52585;47.566;19.056;2022-07-22T08:06:21;27.97;36.73
65824;SHT31;52585;47.566;19.056;2022-07-22T08:08:47;28.03;37.16
65824;SHT31;52585;47.566;19.056;2022-07-22T08:11:12;28.10;37.17
65824;SHT31;52585;47.566;19.056;2022-07-22T08:13:38;28.15;37.02
65824;SHT31;52585;47.566;19.056;2022-07-22T08:16:04;28.21;36.42
65824;SHT31;52585;47.566;19.056;2022-07-22T08:18:29;28.27;36.07
65824;SHT31;52585;47.566;19.056;2022-07-22T08:20:55;28.37;36.79
65824;SHT31;52585;47.566;19.056;2022-07-22T08:23:21;28.48;36.74
65824;SHT31;52585;47.566;19.056;2022-07-22T08:25:47;28.56;36.36
65824;SHT31;52585;47.566;19.056;2022-07-22T08:28:13;28.61;36.22
65824;SHT31;52585;47.566;19.056;2022-07-22T08:30:39;28.67;35.88
65824;SHT31;52585;47.566;19.056;2022-07-22T08:33:05;28.72;35.43
65824;SHT31;52585;47.566;19.056;2022-07-22T08:35:32;28.78;35.52
65824;SHT31;52585;47.566;19.056;2022-07-22T08:37:58;28.83;35.13
65824;SHT31;52585;47.566;19.056;2022-07-22T08:40:23;28.87;35.10
65824;SHT31;52585;47.566;19.056;2022-07-22T08:42:50;28.91;34.81
65824;SHT31;52585;47.566;19.056;2022-07-22T08:45:16;28.93;34.58
65824;SHT31;52585;47.566;19.056;2022-07-22T08:47:44;28.96;34.22
65824;SHT31;52585;47.566;19.056;2022-07-22T08:50:16;28.99;34.26
65824;SHT31;52585;47.566;19.056;2022-07-22T08:52:43;29.05;34.13
65824;SHT31;52585;47.566;19.056;2022-07-22T08:55:09;29.09;34.05
65824;SHT31;52585;47.566;19.056;2022-07-22T08:57:35;29.14;33.97
65824;SHT31;52585;47.566;19.056;2022-07-22T09:00:07;29.17;34.01
65824;SHT31;52585;47.566;19.056;2022-07-22T09:02:37;29.21;33.72
65824;SHT31;52585;47.566;19.056;2022-07-22T09:05:07;29.25;33.57
65824;SHT31;52585;47.566;19.056;2022-07-22T09:07:37;29.30;33.41
65824;SHT31;52585;47.566;19.056;2022-07-22T09:10:09;29.33;33.33
65824;SHT31;52585;47.566;19.056;2022-07-22T09:15:24;29.40;32.89
65824;SHT31;52585;47.566;19.056;2022-07-22T09:18:01;29.45;32.88
65824;SHT31;52585;47.566;19.056;2022-07-22T09:20:28;29.51;32.80
65824;SHT31;52585;47.566;19.056;2022-07-22T09:22:54;29.57;32.93
65824;SHT31;52585;47.566;19.056;2022-07-22T09:25:28;29.64;33.07
65824;SHT31;52585;47.566;19.056;2022-07-22T09:28:18;29.69;32.73
65824;SHT31;52585;47.566;19.056;2022-07-22T09:30:48;29.75;32.48
65824;SHT31;52585;47.566;19.056;2022-07-22T09:33:18;29.79;32.25
65824;SHT31;52585;47.566;19.056;2022-07-22T09:35:45;29.82;32.14
65824;SHT31;52585;47.566;19.056;2022-07-22T09:38:13;29.88;32.32
65824;SHT31;52585;47.566;19.056;2022-07-22T09:40:45;29.94;32.22
65824;SHT31;52585;47.566;19.056;2022-07-22T09:43:14;30.00;32.02
65824;SHT31;52585;47.566;19.056;2022-07-22T09:45:44;30.05;31.95
65824;SHT31;52585;47.566;19.056;2022-07-22T09:48:22;30.10;31.96
65824;SHT31;52585;47.566;19.056;2022-07-22T09:50:50;30.15;31.88
65824;SHT31;52585;47.566;19.056;2022-07-22T09:53:19;30.19;31.76
65824;SHT31;52585;47.566;19.056;2022-07-22T09:55:48;30.25;31.76
65824;SHT31;52585;47.566;19.056;2022-07-22T09:58:15;30.30;31.75
65824;SHT31;52585;47.566;19.056;2022-07-22T10:00:41;30.35;31.76
65824;SHT31;52585;47.566;19.056;2022-07-22T10:03:12;30.42;31.65
65824;SHT31;52585;47.566;19.056;2022-07-22T10:05:45;30.46;31.49
65824;SHT31;52585;47.566;19.056;2022-07-22T10:08:12;30.47;31.50
65824;SHT31;52585;47.566;19.056;2022-07-22T10:10:38;30.49;31.58
65824;SHT31;52585;47.566;19.056;2022-07-22T10:13:05;30.51;31.52
65824;SHT31;52585;47.566;19.056;2022-07-22T10:15:33;30.54;31.66
65824;SHT31;52585;47.566;19.056;2022-07-22T10:18:01;30.57;31.84
65824;SHT31;52585;47.566;19.056;2022-07-22T10:20:33;30.59;32.00
65824;SHT31;52585;47.566;19.056;2022-07-22T10:23:00;30.61;31.87
65824;SHT31;52585;47.566;19.056;2022-07-22T10:25:32;30.65;31.79
65824;SHT31;52585;47.566;19.056;2022-07-22T10:28:20;30.68;32.02
65824;SHT31;52585;47.566;19.056;2022-07-22T10:30:52;30.71;32.02
65824;SHT31;52585;47.566;19.056;2022-07-22T10:33:49;30.73;32.09
65824;SHT31;52585;47.566;19.056;2022-07-22T10:39:02;30.79;32.17
65824;SHT31;52585;47.566;19.056;2022-07-22T10:41:38;30.81;32.10
65824;SHT31;52585;47.566;19.056;2022-07-22T10:44:08;30.83;32.07
65824;SHT31;52585;47.566;19.056;2022-07-22T10:46:52;30.92;31.20
65824;SHT31;52585;47.566;19.056;2022-07-22T10:49:24;31.11;30.75
65824;SHT31;52585;47.566;19.056;2022-07-22T10:54:32;31.42;30.57
65824;SHT31;52585;47.566;19.056;2022-07-22T10:57:02;31.53;30.42
65824;SHT31;52585;47.566;19.056;2022-07-22T10:59:27;31.64;30.10
65824;SHT31;52585;47.566;19.056;2022-07-22T11:01:53;31.75;30.00
65824;SHT31;52585;47.566;19.056;2022-07-22T11:04:20;31.86;29.80
65824;SHT31;52585;47.566;19.056;2022-07-22T11:06:51;31.96;29.75
65824;SHT31;52585;47.566;19.056;2022-07-22T11:09:22;32.03;29.84
65824;SHT31;52585;47.566;19.056;2022-07-22T11:11:57;32.09;29.73
65824;SHT31;52585;47.566;19.056;2022-07-22T11:14:24;32.17;29.77
65824;SHT31;52585;47.566;19.056;2022-07-22T11:16:53;32.25;29.84
65824;SHT31;52585;47.566;19.056;2022-07-22T11:19:26;32.21;30.40
65824;SHT31;52585;47.566;19.056;2022-07-22T11:22:00;32.12;30.55
65824;SHT31;52585;47.566;19.056;2022-07-22T11:24:30;32.06;30.64
65824;SHT31;52585;47.566;19.056;2022-07-22T11:26:57;32.08;30.21
65824;SHT31;52585;47.566;19.056;2022-07-22T11:32:00;32.29;30.12
65824;SHT31;52585;47.566;19.056;2022-07-22T11:34:28;32.36;29.90
65824;SHT31;52585;47.566;19.056;2022-07-22T11:36:55;32.45;29.91
65824;SHT31;52585;47.566;19.056;2022-07-22T11:39:32;32.52;29.82
65824;SHT31;52585;47.566;19.056;2022-07-22T11:41:58;32.58;29.89
65824;SHT31;52585;47.566;19.056;2022-07-22T11:44:34;32.64;30.03
65824;SHT31;52585;47.566;19.056;2022-07-22T11:47:03;32.70;29.85
65824;SHT31;52585;47.566;19.056;2022-07-22T11:49:32;32.72;29.96
65824;SHT31;52585;47.566;19.056;2022-07-22T11:52:02;32.78;30.12
65824;SHT31;52585;47.566;19.056;2022-07-22T11:54:32;32.82;30.22
65824;SHT31;52585;47.566;19.056;2022-07-22T11:56:59;32.89;30.06
65824;SHT31;52585;47.566;19.056;2022-07-22T11:59:26;32.98;30.35
65824;SHT31;52585;47.566;19.056;2022-07-22T12:01:52;33.02;30.09
65824;SHT31;52585;47.566;19.056;2022-07-22T12:04:20;33.07;30.32
65824;SHT31;52585;47.566;19.056;2022-07-22T12:06:49;33.11;30.34
65824;SHT31;52585;47.566;19.056;2022-07-22T12:09:20;33.13;30.41
65824;SHT31;52585;47.566;19.056;2022-07-22T12:11:48;33.15;30.16
65824;SHT31;52585;47.566;19.056;2022-07-22T12:14:24;33.20;29.97
65824;SHT31;52585;47.566;19.056;2022-07-22T12:19:27;33.28;29.80
65824;SHT31;52585;47.566;19.056;2022-07-22T12:22:06;33.29;29.81
65824;SHT31;52585;47.566;19.056;2022-07-22T12:24:40;33.31;30.02
65824;SHT31;52585;47.566;19.056;2022-07-22T12:27:12;33.29;30.06
65824;SHT31;52585;47.566;19.056;2022-07-22T12:30:00;33.30;30.31
65824;SHT31;52585;47.566;19.056;2022-07-22T12:32:46;33.29;30.40
65824;SHT31;52585;47.566;19.056;2022-07-22T12:35:13;33.27;30.48
65824;SHT31;52585;47.566;19.056;2022-07-22T12:37:41;33.25;30.50
65824;SHT31;52585;47.566;19.056;2022-07-22T12:40:11;33.25;30.54
65824;SHT31;52585;47.566;19.056;2022-07-22T12:42:59;33.26;30.66
65824;SHT31;52585;47.566;19.056;2022-07-22T12:45:31;33.26;30.69
65824;SHT31;52585;47.566;19.056;2022-07-22T12:50:42;33.22;30.89
65824;SHT31;52585;47.566;19.056;2022-07-22T12:53:13;33.19;31.10
65824;SHT31;52585;47.566;19.056;2022-07-22T12:55:46;33.17;31.12
65824;SHT31;52585;47.566;19.056;2022-07-22T12:58:16;33.18;31.09
65824;SHT31;52585;47.566;19.056;2022-07-22T13:00:44;33.19;31.04
65824;SHT31;52585;47.566;19.056;2022-07-22T13:03:13;33.20;31.21
65824;SHT31;52585;47.566;19.056;2022-07-22T13:05:39;33.17;31.24
65824;SHT31;52585;47.566;19.056;2022-07-22T13:08:06;33.16;31.48
65824;SHT31;52585;47.566;19.056;2022-07-22T13:10:32;33.13;31.70
65824;SHT31;52585;47.566;19.056;2022-07-22T13:12:58;33.11;31.76
65824;SHT31;52585;47.566;19.056;2022-07-22T13:15:24;33.11;31.84
65824;SHT31;52585;47.566;19.056;2022-07-22T13:17:50;33.11;31.67
65824;SHT31;52585;47.566;19.056;2022-07-22T13:20:16;33.07;31.50
65824;SHT31;52585;47.566;19.056;2022-07-22T13:22:44;33.04;31.45
65824;SHT31;52585;47.566;19.056;2022-07-22T13:25:10;33.04;31.61
65824;SHT31;52585;47.566;19.056;2022-07-22T13:27:37;33.01;31.56
65824;SHT31;52585;47.566;19.056;2022-07-22T13:30:03;32.98;31.47
65824;SHT31;52585;47.566;19.056;2022-07-22T13:32:30;32.97;31.30
65824;SHT31;52585;47.566;19.056;2022-07-22T13:34:56;32.99;31.53
65824;SHT31;52585;47.566;19.056;2022-07-22T13:37:22;33.00;31.77
65824;SHT31;52585;47.566;19.056;2022-07-22T13:39:49;33.03;31.73
65824;SHT31;52585;47.566;19.056;2022-07-22T13:42:16;33.07;31.61
65824;SHT31;52585;47.566;19.056;2022-07-22T13:44:46;33.13;31.37
65824;SHT31;52585;47.566;19.056;2022-07-22T13:47:14;33.15;31.41
65824;SHT31;52585;47.566;19.056;2022-07-22T13:49:40;33.13;31.32
65824;SHT31;52585;47.566;19.056;2022-07-22T13:52:06;33.14;31.16
65824;SHT31;52585;47.566;19.056;2022-07-22T13:54:33;33.15;31.01
65824;SHT31;52585;47.566;19.056;2022-07-22T13:56:59;33.16;30.95
65824;SHT31;52585;47.566;19.056;2022-07-22T13:59:25;33.21;30.68
65824;SHT31;52585;47.566;19.056;2022-07-22T14:01:54;33.23;30.88
65824;SHT31;52585;47.566;19.056;2022-07-22T14:04:20;33.28;30.80
65824;SHT31;52585;47.566;19.056;2022-07-22T14:06:50;33.34;31.10
65824;SHT31;52585;47.566;19.056;2022-07-22T14:09:16;33.37;31.34
65824;SHT31;52585;47.566;19.056;2022-07-22T14:11:42;33.39;31.23
65824;SHT31;52585;47.566;19.056;2022-07-22T14:14:07;33.40;31.16
65824;SHT31;52585;47.566;19.056;2022-07-22T14:16:34;33.43;30.56
65824;SHT31;52585;47.566;19.056;2022-07-22T14:19:11;33.45;30.32
65824;SHT31;52585;47.566;19.056;2022-07-22T14:21:41;33.48;30.42
65824;SHT31;52585;47.566;19.056;2022-07-22T14:24:10;33.52;30.13
65824;SHT31;52585;47.566;19.056;2022-07-22T14:26:36;33.55;29.87
65824;SHT31;52585;47.566;19.056;2022-07-22T14:29:03;33.57;29.56
65824;SHT31;52585;47.566;19.056;2022-07-22T14:31:31;33.58;29.67
65824;SHT31;52585;47.566;19.056;2022-07-22T14:33:59;33.58;29.81
65824;SHT31;52585;47.566;19.056;2022-07-22T14:36:25;33.57;29.83
65824;SHT31;52585;47.566;19.056;2022-07-22T14:38:54;33.41;29.54
65824;SHT31;52585;47.566;19.056;2022-07-22T14:41:22;33.21;29.43
65824;SHT31;52585;47.566;19.056;2022-07-22T14:43:48;33.04;29.50
65824;SHT31;52585;47.566;19.056;2022-07-22T14:46:13;32.88;29.59
65824;SHT31;52585;47.566;19.056;2022-07-22T14:48:39;32.75;29.70
65824;SHT31;52585;47.566;19.056;2022-07-22T14:51:10;32.63;29.82
65824;SHT31;52585;47.566;19.056;2022-07-22T14:53:36;32.52;29.95
65824;SHT31;52585;47.566;19.056;2022-07-22T14:56:03;32.41;30.08
65824;SHT31;52585;47.566;19.056;2022-07-22T14:58:29;32.32;30.29
65824;SHT31;52585;47.566;19.056;2022-07-22T15:00:55;32.24;30.44
65824;SHT31;52585;47.566;19.056;2022-07-22T15:03:20;32.15;30.61
65824;SHT31;52585;47.566;19.056;2022-07-22T15:05:46;32.08;30.82
65824;SHT31;52585;47.566;19.056;2022-07-22T15:08:11;32.01;30.99
65824;SHT31;52585;47.566;19.056;2022-07-22T15:10:37;31.95;31.21
65824;SHT31;52585;47.566;19.056;2022-07-22T15:13:03;31.88;31.42
65824;SHT31;52585;47.566;19.056;2022-07-22T15:15:29;31.81;31.64
65824;SHT31;52585;47.566;19.056;2022-07-22T15:17:55;31.76;31.71
65824;SHT31;52585;47.566;19.056;2022-07-22T15:20:22;31.70;31.79
65824;SHT31;52585;47.566;19.056;2022-07-22T15:22:48;31.66;31.87
65824;SHT31;52585;47.566;19.056;2022-07-22T15:25:14;31.62;31.92
65824;SHT31;52585;47.566;19.056;2022-07-22T15:27:39;31.58;32.00
65824;SHT31;52585;47.566;19.056;2022-07-22T15:30:05;31.53;32.02
65824;SHT31;52585;47.566;19.056;2022-07-22T15:32:33;31.48;32.10
65824;SHT31;52585;47.566;19.056;2022-07-22T15:35:01;31.43;32.16